Time;durP1;ratioP1;P1;durP2;ratioP2;P2;SDS_P1;SDS_P2;PMS_P1;PMS_P2;Temp;Humidity;BMP_temperature;BMP_pressure;BME280_temperature;BME280_humidity;BME280_pressure;Samples;Min_cycle;Max_cycle;Signal;HPM_P1;HPM_P2
2022/11/24 00:00:48;;;;;;;15.05;3.15;;;;;;;6.77;100.00;100254.59;6279700;22;20016;-77
2022/11/24 00:03:15;;;;;;;18.02;3.55;;;;;;;6.78;100.00;100256.06;6280729;22;20012;-77
2022/11/24 00:05:42;;;;;;;15.57;2.97;;;;;;;6.80;100.00;100251.81;6280871;22;20012;-76
2022/11/24 00:08:08;;;;;;;12.90;3.28;;;;;;;6.82;100.00;100240.81;6280212;22;20012;-77
2022/11/24 00:10:35;;;;;;;16.52;3.97;;;;;;;6.85;100.00;100245.25;6280757;22;20020;-76
2022/11/24 00:13:01;;;;;;;17.25;3.22;;;;;;;6.87;100.00;100261.44;6279903;22;20016;-76
2022/11/24 00:15:28;;;;;;;14.05;3.15;;;;;;;6.89;100.00;100273.09;6280061;22;20048;-76
2022/11/24 00:17:54;;;;;;;13.43;2.88;;;;;;;6.87;100.00;100283.34;6279947;22;20381;-76
2022/11/24 00:20:21;;;;;;;17.92;3.45;;;;;;;6.88;100.00;100276.16;6280444;22;20048;-77
2022/11/24 00:22:47;;;;;;;13.05;3.13;;;;;;;6.87;100.00;100279.97;6252852;22;20016;-77
2022/11/24 00:25:14;;;;;;;10.90;2.70;;;;;;;6.86;100.00;100276.56;6280645;22;20016;-76
2022/11/24 00:27:40;;;;;;;10.98;2.85;;;;;;;6.86;100.00;100279.22;6280598;22;20019;-77
2022/11/24 00:30:08;;;;;;;19.25;3.42;;;;;;;6.84;100.00;100276.25;6279158;22;20020;-77
2022/11/24 00:32:35;;;;;;;14.02;3.17;;;;;;;6.82;100.00;100281.22;6280528;22;20441;-77
2022/11/24 00:35:01;;;;;;;17.45;2.72;;;;;;;6.81;100.00;100290.31;6279943;22;20110;-77
2022/11/24 00:37:28;;;;;;;7.85;2.35;;;;;;;6.79;100.00;100282.09;6280422;22;20012;-77
2022/11/24 00:39:54;;;;;;;9.68;2.67;;;;;;;6.80;100.00;100283.56;6279396;22;19996;-77
2022/11/24 00:42:21;;;;;;;11.80;2.75;;;;;;;6.82;100.00;100278.59;6280342;22;20055;-76
2022/11/24 00:44:47;;;;;;;16.92;3.35;;;;;;;6.84;100.00;100278.16;6279102;22;20019;-77
2022/11/24 00:47:14;;;;;;;20.38;3.28;;;;;;;6.83;100.00;100279.31;6280633;22;20457;-76
2022/11/24 00:49:40;;;;;;;11.95;2.83;;;;;;;6.81;100.00;100279.00;6281128;22;20020;-76
2022/11/24 00:52:07;;;;;;;15.35;3.63;;;;;;;6.79;100.00;100279.47;6281098;22;20442;-76
2022/11/24 00:54:33;;;;;;;14.13;3.25;;;;;;;6.76;100.00;100295.44;6281786;22;20501;-76
2022/11/24 00:57:00;;;;;;;21.45;3.95;;;;;;;6.73;100.00;100294.38;6280729;22;20022;-76
2022/11/24 00:59:27;;;;;;;18.52;3.53;;;;;;;6.72;100.00;100300.81;6280920;22;20453;-76
2022/11/24 01:01:53;;;;;;;12.52;3.30;;;;;;;6.72;100.00;100294.78;6280873;22;20020;-76
2022/11/24 01:04:20;;;;;;;11.80;3.28;;;;;;;6.70;100.00;100305.78;6281724;22;20012;-76
2022/11/24 01:06:47;;;;;;;15.43;3.08;;;;;;;6.69;100.00;100309.59;6281187;22;20393;-76
2022/11/24 01:09:13;;;;;;;9.93;3.13;;;;;;;6.66;100.00;100316.47;6281908;22;20016;-77
2022/11/24 01:14:25;;;;;;;14.38;3.72;;;;;;;6.63;100.00;100311.28;6281215;22;20020;-77
2022/11/24 01:16:52;;;;;;;17.77;3.42;;;;;;;6.61;100.00;100300.38;6280835;22;20438;-77
2022/11/24 01:19:19;;;;;;;14.93;3.17;;;;;;;6.59;100.00;100303.44;6281400;22;20102;-77
2022/11/24 01:21:45;;;;;;;18.83;3.75;;;;;;;6.58;100.00;100320.50;6280921;22;20023;-76
2022/11/24 01:24:13;;;;;;;17.73;3.33;;;;;;;6.57;100.00;100324.28;6254094;22;20012;-77
2022/11/24 01:26:40;;;;;;;18.92;3.88;;;;;;;6.54;100.00;100325.13;6281377;22;20398;-76
2022/11/24 01:29:08;;;;;;;14.55;3.70;;;;;;;6.51;100.00;100323.31;6280353;22;20123;-76
2022/11/24 01:31:35;;;;;;;15.32;3.05;;;;;;;6.51;100.00;100325.22;6281549;22;20012;-76
2022/11/24 01:34:02;;;;;;;12.80;3.38;;;;;;;6.50;100.00;100318.47;6280758;22;20438;-76
2022/11/24 01:36:29;;;;;;;15.15;3.40;;;;;;;6.49;100.00;100319.63;6281529;22;20078;-77
2022/11/24 01:38:55;;;;;;;12.00;3.20;;;;;;;6.49;100.00;100317.72;6280749;22;20733;-76
2022/11/24 01:41:23;;;;;;;15.73;3.30;;;;;;;6.46;100.00;100329.13;6280171;22;20066;-77
2022/11/24 01:43:52;;;;;;;13.50;3.30;;;;;;;6.44;100.00;100322.78;6280570;22;20409;-76
2022/11/24 01:46:30;;;;;;;13.73;3.13;;;;;;;6.44;100.00;100328.81;6254291;22;20012;-76
2022/11/24 01:49:12;;;;;;;19.25;3.60;;;;;;;6.45;100.00;100329.56;6280491;22;20055;-77
2022/11/24 01:51:41;;;;;;;;;;;;;;;6.46;100.00;100331.78;6281870;22;20460;-77
2022/11/24 01:54:12;;;;;;;14.10;2.72;;;;;;;6.48;100.00;100336.66;6280943;22;19935;-76
2022/11/24 01:56:42;;;;;;;22.50;3.28;;;;;;;6.48;100.00;100329.47;6280606;22;20016;-77
2022/11/24 01:59:12;;;;;;;10.75;2.78;;;;;;;6.50;100.00;100343.00;6280418;22;20016;-76
2022/11/24 02:01:39;;;;;;;13.95;2.42;;;;;;;6.54;100.00;100342.91;6280539;22;20048;-76
2022/11/24 02:04:10;;;;;;;15.77;2.88;;;;;;;6.59;100.00;100345.03;6280626;22;20070;-76
2022/11/24 02:06:39;;;;;;;17.77;2.95;;;;;;;6.60;100.00;100344.63;6281229;22;20434;-76
2022/11/24 02:09:19;;;;;;;17.90;3.58;;;;;;;6.64;100.00;100339.97;6280371;22;20358;-76
2022/11/24 02:11:46;;;;;;;18.52;2.97;;;;;;;6.67;100.00;100341.03;6280105;22;20071;-77
2022/11/24 02:14:16;;;;;;;10.00;2.38;;;;;;;6.68;100.00;100340.59;6281224;22;20445;-77
2022/11/24 02:16:48;;;;;;;9.80;2.40;;;;;;;6.72;100.00;100343.16;6254299;22;20047;-77
2022/11/24 02:19:24;;;;;;;12.65;2.55;;;;;;;6.77;100.00;100349.81;6281233;22;20020;-76
2022/11/24 02:21:51;;;;;;;6.82;2.17;;;;;;;6.81;100.00;100350.44;6280225;22;20020;-76
2022/11/24 02:24:29;;;;;;;11.40;2.65;;;;;;;6.83;100.00;100353.41;6281190;22;20075;-76
2022/11/24 02:26:55;;;;;;;15.52;2.60;;;;;;;6.85;100.00;100354.47;6279819;22;20492;-76
2022/11/24 02:29:22;;;;;;;12.32;2.38;;;;;;;6.89;100.00;100359.66;6281308;22;20496;-77
2022/11/24 02:31:53;;;;;;;9.00;2.38;;;;;;;6.89;100.00;100357.75;6280396;22;20074;-77
2022/11/24 02:34:20;;;;;;;8.88;2.72;;;;;;;6.91;100.00;100357.34;6281336;22;20040;-76
2022/11/24 02:36:46;;;;;;;11.63;2.35;;;;;;;6.92;100.00;100358.81;6280331;22;20012;-77
2022/11/24 02:39:14;;;;;;;11.55;2.65;;;;;;;6.93;100.00;100355.75;6281031;22;20442;-76
2022/11/24 02:41:45;;;;;;;11.52;2.10;;;;;;;6.96;100.00;100372.69;6280772;22;20024;-77
2022/11/24 02:44:14;;;;;;;7.40;2.20;;;;;;;6.95;100.00;100366.66;6281241;22;20012;-76
2022/11/24 02:46:40;;;;;;;10.30;2.30;;;;;;;6.94;100.00;100369.72;6281084;22;20016;-77
2022/11/24 02:49:07;;;;;;;12.20;2.10;;;;;;;6.93;100.00;100368.97;6280317;22;20082;-77
2022/11/24 02:51:34;;;;;;;8.18;2.25;;;;;;;6.94;100.00;100367.81;6281277;22;20052;-77
2022/11/24 02:54:00;;;;;;;9.95;2.20;;;;;;;6.95;100.00;100369.28;6279766;22;20008;-76
2022/11/24 02:56:27;;;;;;;18.00;3.30;;;;;;;6.97;100.00;100372.25;6281059;22;20424;-76
2022/11/24 02:58:53;;;;;;;9.40;2.63;;;;;;;6.99;100.00;100375.22;6280313;22;20106;-76
2022/11/24 03:01:20;;;;;;;10.02;2.17;;;;;;;6.99;100.00;100372.59;6280839;22;20012;-77
2022/11/24 03:03:46;;;;;;;15.45;2.67;;;;;;;6.98;100.00;100371.09;6252631;22;20078;-76
2022/11/24 03:06:13;;;;;;;12.02;2.15;;;;;;;7.00;100.00;100374.06;6280898;22;20016;-77
2022/11/24 03:08:39;;;;;;;8.90;2.00;;;;;;;7.00;100.00;100376.72;6280260;22;20430;-78
2022/11/24 03:11:06;;;;;;;16.98;2.20;;;;;;;7.01;100.00;100362.31;6279747;22;20618;-77
2022/11/24 03:13:32;;;;;;;13.52;2.90;;;;;;;7.05;100.00;100358.81;6280895;22;20016;-78
2022/11/24 03:15:59;;;;;;;10.52;2.92;;;;;;;7.05;100.00;100369.41;6280121;22;20048;-77
2022/11/24 03:18:25;;;;;;;11.43;2.20;;;;;;;7.05;100.00;100372.06;6280738;22;20022;-77
2022/11/24 03:20:52;;;;;;;8.48;2.15;;;;;;;7.09;100.00;100370.06;6252926;22;20016;-77
2022/11/24 03:23:18;;;;;;;13.60;2.42;;;;;;;7.09;100.00;100378.00;6280231;22;20408;-78
2022/11/24 03:25:45;;;;;;;8.85;2.20;;;;;;;7.12;100.00;100377.16;6280749;22;20012;-78
2022/11/24 03:28:11;;;;;;;9.52;2.13;;;;;;;7.13;100.00;100378.63;6280876;22;20442;-78
2022/11/24 03:30:38;;;;;;;8.88;2.22;;;;;;;7.14;100.00;100382.75;6280868;22;20345;-78
2022/11/24 03:33:06;;;;;;;7.53;2.47;;;;;;;7.13;100.00;100378.63;6280386;22;20419;-78
2022/11/24 03:35:32;;;;;;;10.60;2.55;;;;;;;7.14;100.00;100385.41;6280786;22;20012;-78
2022/11/24 03:37:58;;;;;;;9.98;2.97;;;;;;;7.13;100.00;100391.88;6279467;22;20016;-78
2022/11/24 03:40:25;;;;;;;10.10;2.30;;;;;;;7.12;100.00;100385.09;6280597;22;20016;-78
2022/11/24 03:42:51;;;;;;;10.95;2.70;;;;;;;7.13;100.00;100389.22;6280071;22;20020;-78
2022/11/24 03:45:18;;;;;;;9.82;2.15;;;;;;;7.16;100.00;100388.38;6280737;22;20039;-78
2022/11/24 03:48:06;;;;;;;11.20;2.30;;;;;;;7.15;100.00;100390.28;6279931;22;20454;-78
2022/11/24 03:50:32;;;;;;;8.73;2.22;;;;;;;7.15;100.00;100379.69;6280887;22;20012;-78
2022/11/24 03:52:59;;;;;;;10.52;2.55;;;;;;;7.13;100.00;100391.88;6279738;22;20552;-78
2022/11/24 03:55:25;;;;;;;9.60;2.58;;;;;;;7.11;100.00;100400.22;6280737;22;20544;-78
2022/11/24 03:57:52;;;;;;;8.05;2.03;;;;;;;7.11;100.00;100397.59;6280168;22;20044;-78
2022/11/24 04:00:18;;;;;;;12.13;2.10;;;;;;;7.11;100.00;100394.94;6280909;22;20012;-78
2022/11/24 04:02:46;;;;;;;15.63;2.47;;;;;;;7.13;100.00;100397.16;6280873;22;20020;-78
2022/11/24 04:05:14;;;;;;;13.73;2.83;;;;;;;7.12;100.00;100401.72;6280470;22;20430;-78
2022/11/24 04:07:40;;;;;;;10.32;2.42;;;;;;;7.12;100.00;100403.63;6280173;22;20218;-77
2022/11/24 04:10:07;;;;;;;14.70;2.38;;;;;;;7.11;100.00;100405.53;6279968;22;20453;-77
2022/11/24 04:12:43;;;;;;;10.85;2.65;;;;;;;7.14;100.00;100407.31;6280563;22;20442;-77
2022/11/24 04:15:18;;;;;;;13.02;2.25;;;;;;;7.16;100.00;100415.59;6279670;22;20323;-77
2022/11/24 04:17:45;;;;;;;5.82;2.20;;;;;;;7.18;100.00;100423.09;6253431;22;20095;-77
2022/11/24 04:20:13;;;;;;;15.98;2.72;;;;;;;7.19;100.00;100424.59;6280647;22;20802;-77
2022/11/24 04:22:39;;;;;;;10.73;2.50;;;;;;;7.18;100.00;100421.19;6279822;22;20398;-77
2022/11/24 04:25:07;;;;;;;13.15;2.80;;;;;;;7.18;100.00;100423.09;6280664;22;20311;-78
2022/11/24 04:27:35;;;;;;;9.23;2.45;;;;;;;7.18;100.00;100431.78;6281637;22;20044;-78
2022/11/24 04:30:06;;;;;;;10.95;2.40;;;;;;;7.17;100.00;100432.97;6280873;22;20036;-78
2022/11/24 04:32:32;;;;;;;9.48;2.50;;;;;;;7.18;100.00;100436.34;6281819;22;20083;-78
2022/11/24 04:34:59;;;;;;;9.48;2.25;;;;;;;7.16;100.00;100436.75;6280681;22;20087;-78
2022/11/24 04:37:25;;;;;;;14.32;3.08;;;;;;;7.16;100.00;100439.41;6281042;22;20484;-78
2022/11/24 04:39:53;;;;;;;12.00;2.20;;;;;;;7.17;100.00;100448.84;6280460;22;20036;-78
2022/11/24 04:42:20;;;;;;;11.25;2.95;;;;;;;7.14;100.00;100449.69;6281655;22;20142;-78
2022/11/24 04:44:46;;;;;;;6.75;2.30;;;;;;;7.14;100.00;100452.31;6280864;22;20012;-78
2022/11/24 04:47:20;;;;;;;8.43;2.42;;;;;;;7.15;100.00;100461.00;6281702;22;20040;-78
2022/11/24 04:49:47;;;;;;;14.02;3.00;;;;;;;7.17;100.00;100469.28;6280523;22;20040;-78
2022/11/24 04:52:15;;;;;;;8.00;2.15;;;;;;;7.16;100.00;100467.78;6281627;22;20062;-78
2022/11/24 04:54:42;;;;;;;8.52;2.80;;;;;;;7.16;100.00;100481.03;6254122;22;20506;-78
2022/11/24 04:57:15;;;;;;;8.18;2.65;;;;;;;7.18;100.00;100486.66;6280704;22;20091;-78
2022/11/24 04:59:42;;;;;;;9.88;3.15;;;;;;;7.17;100.00;100485.91;6281694;22;20087;-78
2022/11/24 05:02:09;;;;;;;11.15;2.88;;;;;;;7.16;100.00;100487.06;6280762;22;20012;-78
2022/11/24 05:04:36;;;;;;;10.35;3.03;;;;;;;7.16;100.00;100495.00;6280728;22;20090;-78
2022/11/24 05:07:03;;;;;;;9.80;2.75;;;;;;;7.14;100.00;100502.63;6280847;22;20099;-78
2022/11/24 05:09:29;;;;;;;11.65;3.20;;;;;;;7.16;100.00;100507.50;6281549;22;20040;-78
2022/11/24 05:12:15;;;;;;;8.52;2.55;;;;;;;7.16;100.00;100504.84;6281623;22;20354;-78
2022/11/24 05:14:42;;;;;;;4.35;2.05;;;;;;;7.15;100.00;100517.34;6281419;22;20087;-78
2022/11/24 05:17:08;;;;;;;8.88;2.65;;;;;;;7.13;100.00;100521.56;6280814;22;20048;-77
2022/11/24 05:19:35;;;;;;;3.35;1.90;;;;;;;7.13;100.00;100526.88;6280978;22;20013;-78
2022/11/24 05:22:01;;;;;;;5.72;1.85;;;;;;;7.09;100.00;100524.31;6280766;22;20016;-78
2022/11/24 05:24:28;;;;;;;4.70;1.52;;;;;;;7.05;100.00;100525.56;6281308;22;20023;-78
2022/11/24 05:26:54;;;;;;;3.75;1.50;;;;;;;7.02;100.00;100535.09;6280638;22;20099;-78
2022/11/24 05:29:21;;;;;;;2.88;0.93;;;;;;;7.00;100.00;100540.06;6281417;22;20016;-78
2022/11/24 05:31:47;;;;;;;2.83;1.42;;;;;;;6.99;100.00;100543.88;6280703;22;20453;-78
2022/11/24 05:34:14;;;;;;;3.80;1.67;;;;;;;6.95;100.00;100540.56;6280559;22;20012;-78
2022/11/24 05:36:53;;;;;;;8.07;1.38;;;;;;;6.92;100.00;100539.50;6281384;22;20442;-79
2022/11/24 05:39:20;;;;;;;2.25;1.00;;;;;;;6.90;100.00;100549.75;6281552;22;20017;-78
2022/11/24 05:41:46;;;;;;;5.13;1.35;;;;;;;6.88;100.00;100557.38;6280422;22;20016;-78
2022/11/24 05:44:13;;;;;;;2.00;1.10;;;;;;;6.84;100.00;100562.00;6281194;22;20441;-78
2022/11/24 05:46:39;;;;;;;2.78;1.30;;;;;;;6.84;100.00;100563.91;6281214;22;20480;-78
2022/11/24 05:49:06;;;;;;;2.53;1.23;;;;;;;6.81;100.00;100568.13;6279995;22;20820;-78
2022/11/24 05:51:33;;;;;;;3.10;1.10;;;;;;;6.78;100.00;100569.00;6281320;22;20468;-78
2022/11/24 05:53:59;;;;;;;3.28;1.20;;;;;;;6.76;100.00;100579.25;6280388;22;20016;-78
2022/11/24 05:56:26;;;;;;;7.45;1.08;;;;;;;6.76;100.00;100583.81;6281182;22;20504;-78
2022/11/24 05:58:52;;;;;;;3.88;0.90;;;;;;;6.72;100.00;100589.19;6253463;22;20019;-78
2022/11/24 06:01:19;;;;;;;2.53;1.00;;;;;;;6.71;100.00;100598.28;6281242;22;20020;-78
2022/11/24 06:03:45;;;;;;;3.40;0.90;;;;;;;6.68;100.00;100607.03;6280098;22;20016;-76
2022/11/24 06:06:12;;;;;;;5.38;1.00;;;;;;;6.71;100.00;100608.84;6281366;22;20402;-76
2022/11/24 06:08:39;;;;;;;2.65;0.95;;;;;;;6.71;100.00;100611.50;6281047;22;20016;-76
2022/11/24 06:11:17;;;;;;;3.35;0.90;;;;;;;6.71;100.00;100610.75;6280354;22;20385;-76
2022/11/24 06:13:45;;;;;;;2.67;0.98;;;;;;;6.69;100.00;100609.28;6281021;22;20016;-76
2022/11/24 06:16:12;;;;;;;3.72;1.58;;;;;;;6.67;100.00;100624.81;6281194;22;20016;-76
2022/11/24 06:18:39;;;;;;;3.10;1.20;;;;;;;6.66;100.00;100639.19;6280714;22;20016;-76
2022/11/24 06:21:06;;;;;;;3.38;1.52;;;;;;;6.67;100.00;100639.94;6280446;22;20078;-76
2022/11/24 06:23:37;;;;;;;1.73;1.23;;;;;;;6.66;100.00;100641.09;6281120;22;20028;-76
2022/11/24 06:26:04;;;;;;;1.40;1.20;;;;;;;6.66;100.00;100643.75;6280198;22;20020;-76
2022/11/24 06:28:31;;;;;;;2.92;1.20;;;;;;;6.67;100.00;100647.88;6280894;22;20019;-76
2022/11/24 06:31:01;;;;;;;5.38;1.42;;;;;;;6.67;100.00;100658.47;6280230;22;20036;-76
2022/11/24 06:33:35;;;;;;;3.65;1.30;;;;;;;6.66;100.00;100665.66;6280424;22;20104;-76
2022/11/24 06:36:05;;;;;;;3.63;1.30;;;;;;;6.65;100.00;100666.81;6280322;22;20028;-76
2022/11/24 06:38:33;;;;;;;6.30;1.80;;;;;;;6.64;100.00;100670.59;6253419;22;20513;-76
2022/11/24 06:41:01;;;;;;;2.67;1.50;;;;;;;6.65;100.00;100679.28;6279673;22;20039;-77
2022/11/24 06:43:29;;;;;;;2.85;1.60;;;;;;;6.65;100.00;100692.50;6280862;22;20026;-76
2022/11/24 06:45:56;;;;;;;2.53;1.80;;;;;;;6.64;100.00;100689.13;6279556;22;20023;-76
2022/11/24 06:48:23;;;;;;;3.78;2.25;;;;;;;6.64;100.00;100706.91;6280839;22;20023;-76
2022/11/24 06:50:50;;;;;;;5.45;1.98;;;;;;;6.62;100.00;100712.59;6280504;22;20040;-77
2022/11/24 06:53:17;;;;;;;4.50;2.17;;;;;;;6.61;100.00;100703.16;6280801;22;20016;-76
2022/11/24 06:55:45;;;;;;;3.42;3.13;;;;;;;6.59;100.00;100715.31;6281238;22;20020;-76
2022/11/24 06:58:11;;;;;;;6.72;3.33;;;;;;;6.57;100.00;100718.38;6254664;22;20023;-77
2022/11/24 07:00:38;;;;;;;7.32;3.95;;;;;;;6.55;100.00;100707.47;6280709;22;20144;-77
2022/11/24 07:03:05;;;;;;;9.48;3.88;;;;;;;6.52;100.00;100724.16;6280016;22;20019;-77
2022/11/24 07:05:31;;;;;;;6.22;3.78;;;;;;;6.51;100.00;100732.50;6253399;22;20016;-77
2022/11/24 07:07:59;;;;;;;6.63;4.00;;;;;;;6.51;100.00;100730.59;6280001;22;20078;-77
2022/11/24 07:10:26;;;;;;;5.35;4.35;;;;;;;6.51;100.00;100737.78;6280644;22;20456;-78
2022/11/24 07:12:52;;;;;;;5.88;4.10;;;;;;;6.50;100.00;100746.88;6280941;22;20043;-78
2022/11/24 07:15:19;;;;;;;6.68;4.50;;;;;;;6.49;100.00;100745.38;6280531;22;20523;-79
2022/11/24 07:17:45;;;;;;;6.68;4.93;;;;;;;6.50;100.00;100752.16;6281046;22;20087;-77
2022/11/24 07:20:11;;;;;;;6.30;5.15;;;;;;;6.51;100.00;100761.59;6281353;22;20054;-78
2022/11/24 07:22:38;;;;;;;7.63;5.60;;;;;;;6.51;100.00;100758.94;6281227;22;20035;-78
2022/11/24 07:25:06;;;;;;;8.43;6.03;;;;;;;6.52;100.00;100765.72;6253602;22;20020;-78
2022/11/24 07:27:32;;;;;;;11.32;5.72;;;;;;;6.53;100.00;100773.25;6281393;22;20017;-77
2022/11/24 07:29:59;;;;;;;11.20;6.47;;;;;;;6.56;100.00;100766.41;6279939;22;20015;-78
2022/11/24 07:32:25;;;;;;;9.73;6.70;;;;;;;6.57;100.00;100767.88;6281546;22;20023;-78
2022/11/24 07:34:52;;;;;;;10.90;5.93;;;;;;;6.56;100.00;100766.41;6280973;22;20362;-77
2022/11/24 07:37:18;;;;;;;7.75;5.88;;;;;;;6.56;100.00;100774.31;6281417;22;20087;-78
2022/11/24 07:39:44;;;;;;;7.18;5.78;;;;;;;6.56;100.00;100782.25;6280885;22;20088;-77
2022/11/24 07:42:11;;;;;;;8.38;6.40;;;;;;;6.58;100.00;100790.53;6280018;22;20086;-77
2022/11/24 07:44:39;;;;;;;5.85;5.38;;;;;;;6.59;100.00;100795.41;6279550;22;20476;-78
2022/11/24 07:47:05;;;;;;;7.57;5.60;;;;;;;6.62;100.00;100807.09;6253309;22;20016;-80
2022/11/24 07:49:32;;;;;;;8.27;5.80;;;;;;;6.63;100.00;100806.66;6280924;22;20382;-78
2022/11/24 07:51:59;;;;;;;6.68;5.13;;;;;;;6.63;100.00;100800.63;6253469;22;20464;-77
2022/11/24 07:54:26;;;;;;;9.45;5.13;;;;;;;6.63;100.00;100805.94;6281100;22;20025;-76
2022/11/24 07:56:52;;;;;;;10.90;5.70;;;;;;;6.63;100.00;100809.31;6280578;22;20055;-78
2022/11/24 07:59:19;;;;;;;10.57;5.63;;;;;;;6.63;100.00;100819.16;6280310;22;20016;-76
2022/11/24 08:01:45;;;;;;;7.07;5.15;;;;;;;6.63;100.00;100835.78;6252855;22;20086;-76
2022/11/24 08:04:12;;;;;;;10.07;4.97;;;;;;;6.64;100.00;100842.56;6280912;22;20393;-76
2022/11/24 08:06:38;;;;;;;6.10;5.40;;;;;;;6.66;100.00;100847.44;6280990;22;20016;-78
2022/11/24 08:09:12;;;;;;;7.68;5.35;;;;;;;6.67;100.00;100852.31;6280793;22;20016;-75
2022/11/24 08:11:38;;;;;;;8.70;5.20;;;;;;;6.69;100.00;100852.66;6280897;22;20079;-77
2022/11/24 08:14:05;;;;;;;9.35;5.45;;;;;;;6.71;100.00;100862.09;6279982;22;20445;-76
2022/11/24 08:16:31;;;;;;;6.93;5.18;;;;;;;6.74;100.00;100862.00;6281058;22;20036;-78
2022/11/24 08:18:58;;;;;;;10.93;5.13;;;;;;;6.77;100.00;100869.13;6280513;22;20070;-77
2022/11/24 08:21:25;;;;;;;8.82;4.95;;;;;;;6.79;100.00;100869.47;6280520;22;20017;-78
2022/11/24 08:23:55;;;;;;;7.72;4.80;;;;;;;6.81;100.00;100859.19;6280518;22;20032;-77
2022/11/24 08:26:23;;;;;;;9.35;5.20;;;;;;;6.84;100.00;100854.97;6281153;22;20016;-76
2022/11/24 08:28:56;;;;;;;8.20;5.43;;;;;;;6.86;100.00;100858.72;6279793;22;20012;-76
2022/11/24 08:31:25;;;;;;;7.95;4.72;;;;;;;6.87;100.00;100868.16;6280414;22;20048;-75
2022/11/24 08:33:54;;;;;;;6.57;4.93;;;;;;;6.86;100.00;100864.00;6280209;22;20095;-74
2022/11/24 08:36:21;;;;;;;6.32;5.00;;;;;;;6.85;100.00;100872.34;6280288;22;20441;-77
2022/11/24 08:38:48;;;;;;;8.65;5.22;;;;;;;6.87;100.00;100872.69;6280187;22;20040;-77
2022/11/24 08:41:16;;;;;;;8.80;4.88;;;;;;;6.90;100.00;100877.91;6280156;22;20055;-78
2022/11/24 08:43:43;;;;;;;10.60;4.50;;;;;;;6.94;100.00;100891.81;6279514;22;20020;-75
2022/11/24 08:46:13;;;;;;;6.70;4.50;;;;;;;6.99;100.00;100890.59;6280011;22;20050;-76
2022/11/24 08:48:40;;;;;;;6.97;5.00;;;;;;;7.02;100.00;100887.88;6280760;22;20095;-76
2022/11/24 08:51:10;;;;;;;8.10;5.00;;;;;;;7.03;100.00;100889.38;6280093;22;20401;-77
2022/11/24 08:53:37;;;;;;;8.00;4.60;;;;;;;7.03;100.00;100892.00;6280610;22;20047;-76
2022/11/24 08:56:04;;;;;;;7.20;4.28;;;;;;;7.02;100.00;100906.41;6280308;22;20039;-75
2022/11/24 08:58:31;;;;;;;11.23;4.80;;;;;;;7.00;100.00;100900.78;6280141;22;20016;-76
2022/11/24 09:01:12;;;;;;;11.55;4.53;;;;;;;6.98;100.00;100916.31;6280220;22;20104;-76
2022/11/24 09:03:40;;;;;;;8.53;4.93;;;;;;;6.96;100.00;100910.69;6280556;22;20024;-76
2022/11/24 09:06:17;;;;;;;7.72;4.20;;;;;;;6.95;100.00;100919.03;6280647;22;20067;-76
2022/11/24 09:08:43;;;;;;;6.65;4.60;;;;;;;6.95;100.00;100911.84;6280449;22;20397;-76
2022/11/24 09:11:13;;;;;;;6.78;4.60;;;;;;;6.96;100.00;100913.31;6280388;22;20055;-76
2022/11/24 09:13:40;;;;;;;13.18;4.43;;;;;;;6.97;100.00;100922.75;6253984;22;20028;-77
2022/11/24 09:16:12;;;;;;;7.03;3.90;;;;;;;7.05;100.00;100928.66;6281588;22;20040;-75
2022/11/24 09:18:39;;;;;;;10.35;3.80;;;;;;;7.10;100.00;100933.47;6282034;22;20027;-77
2022/11/24 09:21:14;;;;;;;9.60;4.30;;;;;;;7.13;100.00;100927.38;6281246;22;20455;-77
2022/11/24 09:23:42;;;;;;;7.03;4.32;;;;;;;7.19;100.00;100935.56;6281662;22;20082;-77
2022/11/24 09:26:12;;;;;;;12.02;4.40;;;;;;;7.24;100.00;100938.44;6280721;22;20083;-76
2022/11/24 09:28:39;;;;;;;11.85;3.83;;;;;;;7.28;100.00;100941.78;6281818;22;20043;-76
2022/11/24 09:31:09;;;;;;;9.77;4.13;;;;;;;7.31;100.00;100943.59;6281227;22;20091;-75
2022/11/24 09:33:36;;;;;;;9.45;3.50;;;;;;;7.36;100.00;100948.41;6281651;22;20017;-75
2022/11/24 09:36:04;;;;;;;7.22;3.67;;;;;;;7.38;100.00;100948.00;6281270;22;20015;-77
2022/11/24 09:38:31;;;;;;;10.30;3.92;;;;;;;7.44;100.00;100961.50;6281801;22;20016;-76
2022/11/24 09:41:16;;;;;;;7.88;3.53;;;;;;;7.50;100.00;100959.84;6280438;22;20485;-76
2022/11/24 09:44:02;;;;;;;11.43;3.92;;;;;;;7.52;100.00;100960.19;6281425;22;20094;-76
2022/11/24 09:46:47;;;;;;;9.60;3.28;;;;;;;7.54;100.00;100955.97;6281763;22;20662;-75
2022/11/24 09:49:23;;;;;;;6.95;2.63;;;;;;;7.60;100.00;100980.06;6281735;22;20020;-77
2022/11/24 09:51:53;;;;;;;10.75;2.90;;;;;;;7.62;100.00;100975.84;6281051;22;20422;-77
2022/11/24 09:54:27;;;;;;;5.82;2.47;;;;;;;7.67;100.00;100983.28;6280641;22;20083;-76
2022/11/24 09:56:58;;;;;;;7.95;2.75;;;;;;;7.73;100.00;100974.84;6281163;22;20036;-76
2022/11/24 09:59:26;;;;;;;15.18;3.10;;;;;;;7.78;100.00;100988.34;6281330;22;20012;-77
2022/11/24 10:01:54;;;;;;;14.65;2.65;;;;;;;7.80;100.00;100980.00;6280905;22;20456;-76
2022/11/24 10:04:26;;;;;;;14.32;2.55;;;;;;;7.83;100.00;100993.16;6281083;22;20020;-77
2022/11/24 10:07:10;;;;;;;10.38;2.65;;;;;;;7.89;100.00;100998.72;6281222;22;20012;-76
2022/11/24 10:09:52;;;;;;;9.02;2.45;;;;;;;7.93;100.00;100994.84;6280816;22;20430;-76
2022/11/24 10:12:27;;;;;;;6.65;2.88;;;;;;;8.01;100.00;100995.38;6281211;22;20047;-76
2022/11/24 10:15:00;;;;;;;10.95;2.35;;;;;;;8.05;100.00;100993.41;6281283;22;20087;-75
2022/11/24 10:17:33;;;;;;;3.97;2.40;;;;;;;8.10;100.00;101006.16;6253897;22;20473;-77
2022/11/24 10:20:20;;;;;;;10.05;2.70;;;;;;;8.14;100.00;101012.13;6281010;22;20036;-77
2022/11/24 10:23:19;;;;;;;4.97;2.30;;;;;;;8.11;100.00;101014.88;6280383;22;20492;-76
2022/11/24 10:25:59;;;;;;;15.20;2.53;;;;;;;8.08;100.00;101018.34;6280606;22;20488;-77
2022/11/24 10:28:43;;;;;;;8.32;2.33;;;;;;;8.08;100.00;101024.38;6281525;22;20067;-77
2022/11/24 10:31:22;;;;;;;10.00;2.58;;;;;;;8.10;100.00;101030.03;6280812;22;20019;-77
2022/11/24 10:33:50;;;;;;;15.10;2.78;;;;;;;8.12;100.00;101027.72;6280855;22;20016;-77
2022/11/24 10:36:28;;;;;;;8.27;2.53;;;;;;;8.18;100.00;101033.25;6281269;22;20020;-77
2022/11/24 10:39:09;;;;;;;9.80;2.85;;;;;;;8.24;100.00;101037.66;6280574;22;20012;-75
2022/11/24 10:42:14;;;;;;;6.10;2.03;;;;;;;8.33;100.00;101040.50;6280916;22;20016;-77
2022/11/24 10:44:41;;;;;;;7.95;2.58;;;;;;;8.39;100.00;101043.41;6223030;22;20174;-76
2022/11/24 10:47:21;;;;;;;9.30;2.40;;;;;;;8.44;100.00;101042.13;6280761;22;20040;-78
2022/11/24 10:49:56;;;;;;;7.18;3.13;;;;;;;8.49;100.00;101046.94;6280552;22;20468;-76
2022/11/24 10:52:24;;;;;;;16.02;2.50;;;;;;;8.54;100.00;101057.03;6280662;22;20012;-78
2022/11/24 10:54:56;;;;;;;12.18;3.05;;;;;;;8.60;100.00;101052.72;6280805;22;20441;-76
2022/11/24 10:57:52;;;;;;;5.50;2.00;;;;;;;8.68;100.00;101051.38;6281395;22;20086;-78
2022/11/24 11:00:18;;;;;;;12.10;2.38;;;;;;;8.71;100.00;101053.22;6203604;22;20013;-75
2022/11/24 11:02:47;;;;;;;13.38;3.42;;;;;;;8.77;100.00;101062.16;6281259;22;20071;-76
2022/11/24 11:05:42;;;;;;;11.23;2.78;;;;;;;8.84;99.85;101061.94;6281029;22;20058;-76
2022/11/24 11:08:16;;;;;;;8.35;2.78;;;;;;;8.90;99.10;101065.59;6280369;22;20023;-76
2022/11/24 11:10:43;;;;;;;15.18;2.70;;;;;;;8.94;97.76;101060.19;6281077;22;20032;-79
2022/11/24 11:13:30;;;;;;;11.85;3.00;;;;;;;8.91;97.61;101061.75;6281392;22;20040;-77
2022/11/24 11:15:57;;;;;;;11.27;3.25;;;;;;;8.85;97.25;101075.97;6280559;22;20012;-77
2022/11/24 11:18:30;;;;;;;9.68;2.85;;;;;;;8.85;96.98;101065.34;6281142;22;20016;-77
2022/11/24 11:21:00;;;;;;;10.13;3.03;;;;;;;8.87;96.96;101063.03;6280466;22;20405;-76
2022/11/24 11:23:31;;;;;;;21.17;3.00;;;;;;;8.89;96.90;101063.34;6280390;22;20016;-76
2022/11/24 11:26:37;;;;;;;9.77;3.20;;;;;;;8.92;97.21;101063.25;6280611;22;20016;-77
2022/11/24 11:29:06;;;;;;;16.17;3.33;;;;;;;8.92;97.21;101060.59;6126797;23;20396;-75
2022/11/24 11:32:15;;;;;;;18.05;3.03;;;;;;;8.96;96.75;101065.81;6126626;23;20109;-78
2022/11/24 11:35:01;;;;;;;12.88;3.00;;;;;;;9.00;96.49;101063.81;6126528;23;20149;-77